sensor_id;sensor_type;location;lat;lon;timestamp;P1;durP1;ratioP1;P2;durP2;ratioP2
16478;SDS011;8350;52.316;10.530;2024-03-23T00:55:04;5.00;;;2.92;;
16478;SDS011;8350;52.316;10.530;2024-03-23T00:57:30;6.13;;;3.15;;
16478;SDS011;8350;52.316;10.530;2024-03-23T00:59:58;4.15;;;2.92;;
16478;SDS011;8350;52.316;10.530;2024-03-23T01:02:24;5.10;;;2.88;;
16478;SDS011;8350;52.316;10.530;2024-03-23T01:04:53;4.00;;;2.75;;
16478;SDS011;8350;52.316;10.530;2024-03-23T01:07:25;3.72;;;2.10;;
16478;SDS011;8350;52.316;10.530;2024-03-23T01:09:54;4.40;;;2.33;;
16478;SDS011;8350;52.316;10.530;2024-03-23T01:12:22;3.95;;;1.55;;
16478;SDS011;8350;52.316;10.530;2024-03-23T01:14:49;7.07;;;1.77;;
16478;SDS011;8350;52.316;10.530;2024-03-23T01:17:20;3.25;;;1.73;;
16478;SDS011;8350;52.316;10.530;2024-03-23T01:19:53;1.73;;;1.58;;
16478;SDS011;8350;52.316;10.530;2024-03-23T01:22:22;2.55;;;2.00;;
16478;SDS011;8350;52.316;10.530;2024-03-23T01:24:49;3.72;;;1.85;;
16478;SDS011;8350;52.316;10.530;2024-03-23T01:27:17;1.80;;;1.50;;
16478;SDS011;8350;52.316;10.530;2024-03-23T01:29:49;5.18;;;2.63;;
16478;SDS011;8350;52.316;10.530;2024-03-23T01:35:05;3.25;;;1.83;;
16478;SDS011;8350;52.316;10.530;2024-03-23T01:37:31;4.15;;;2.05;;
16478;SDS011;8350;52.316;10.530;2024-03-23T01:39:59;5.20;;;2.05;;
16478;SDS011;8350;52.316;10.530;2024-03-23T01:42:25;7.70;;;2.92;;
16478;SDS011;8350;52.316;10.530;2024-03-23T01:44:52;7.00;;;2.75;;
16478;SDS011;8350;52.316;10.530;2024-03-23T01:47:18;4.00;;;1.67;;
16478;SDS011;8350;52.316;10.530;2024-03-23T01:49:47;4.32;;;2.22;;
16478;SDS011;8350;52.316;10.530;2024-03-23T01:52:30;2.80;;;1.83;;
16478;SDS011;8350;52.316;10.530;2024-03-23T01:54:57;2.20;;;2.00;;
16478;SDS011;8350;52.316;10.530;2024-03-23T01:57:22;3.08;;;1.95;;
16478;SDS011;8350;52.316;10.530;2024-03-23T01:59:52;3.92;;;2.28;;
16478;SDS011;8350;52.316;10.530;2024-03-23T02:02:20;5.30;;;2.40;;
16478;SDS011;8350;52.316;10.530;2024-03-23T02:04:49;3.95;;;3.05;;
16478;SDS011;8350;52.316;10.530;2024-03-23T02:07:15;2.13;;;1.90;;
16478;SDS011;8350;52.316;10.530;2024-03-23T02:09:42;4.70;;;1.80;;
16478;SDS011;8350;52.316;10.530;2024-03-23T02:12:09;4.18;;;2.08;;
16478;SDS011;8350;52.316;10.530;2024-03-23T02:14:36;2.00;;;1.63;;
16478;SDS011;8350;52.316;10.530;2024-03-23T02:17:02;4.97;;;2.03;;
16478;SDS011;8350;52.316;10.530;2024-03-23T02:19:32;3.63;;;1.88;;
16478;SDS011;8350;52.316;10.530;2024-03-23T02:22:02;2.55;;;2.03;;
16478;SDS011;8350;52.316;10.530;2024-03-23T02:24:30;2.53;;;1.52;;
16478;SDS011;8350;52.316;10.530;2024-03-23T02:26:56;3.50;;;3.00;;
16478;SDS011;8350;52.316;10.530;2024-03-23T02:29:25;3.33;;;3.03;;
16478;SDS011;8350;52.316;10.530;2024-03-23T02:32:00;3.55;;;1.67;;
16478;SDS011;8350;52.316;10.530;2024-03-23T02:34:27;3.10;;;1.85;;
16478;SDS011;8350;52.316;10.530;2024-03-23T02:36:56;3.35;;;1.77;;
16478;SDS011;8350;52.316;10.530;2024-03-23T02:42:11;2.40;;;1.40;;
16478;SDS011;8350;52.316;10.530;2024-03-23T02:44:40;3.50;;;2.00;;
16478;SDS011;8350;52.316;10.530;2024-03-23T02:47:06;2.63;;;1.75;;
16478;SDS011;8350;52.316;10.530;2024-03-23T02:49:34;4.88;;;1.63;;
16478;SDS011;8350;52.316;10.530;2024-03-23T02:52:02;1.38;;;1.23;;
16478;SDS011;8350;52.316;10.530;2024-03-23T02:54:32;2.67;;;1.55;;
16478;SDS011;8350;52.316;10.530;2024-03-23T02:56:59;2.70;;;2.03;;
16478;SDS011;8350;52.316;10.530;2024-03-23T02:59:26;2.10;;;1.70;;
16478;SDS011;8350;52.316;10.530;2024-03-23T03:02:13;1.95;;;1.73;;
16478;SDS011;8350;52.316;10.530;2024-03-23T03:04:41;2.33;;;1.30;;
16478;SDS011;8350;52.316;10.530;2024-03-23T03:07:07;2.20;;;1.45;;
16478;SDS011;8350;52.316;10.530;2024-03-23T03:09:44;2.28;;;1.88;;
16478;SDS011;8350;52.316;10.530;2024-03-23T03:12:19;4.70;;;2.33;;
16478;SDS011;8350;52.316;10.530;2024-03-23T03:14:46;2.65;;;1.67;;
16478;SDS011;8350;52.316;10.530;2024-03-23T03:17:11;2.30;;;1.55;;
16478;SDS011;8350;52.316;10.530;2024-03-23T03:19:39;5.20;;;2.22;;
16478;SDS011;8350;52.316;10.530;2024-03-23T03:22:05;3.13;;;1.67;;
16478;SDS011;8350;52.316;10.530;2024-03-23T03:24:33;1.98;;;1.75;;
16478;SDS011;8350;52.316;10.530;2024-03-23T03:27:14;4.22;;;1.75;;
16478;SDS011;8350;52.316;10.530;2024-03-23T03:29:43;2.67;;;1.75;;
16478;SDS011;8350;52.316;10.530;2024-03-23T03:32:09;3.25;;;1.75;;
16478;SDS011;8350;52.316;10.530;2024-03-23T03:34:37;1.70;;;1.25;;
16478;SDS011;8350;52.316;10.530;2024-03-23T03:37:03;1.60;;;1.40;;
16478;SDS011;8350;52.316;10.530;2024-03-23T03:39:34;1.98;;;1.60;;
16478;SDS011;8350;52.316;10.530;2024-03-23T03:42:00;2.53;;;1.83;;
16478;SDS011;8350;52.316;10.530;2024-03-23T03:44:35;2.03;;;1.80;;
16478;SDS011;8350;52.316;10.530;2024-03-23T03:47:05;1.55;;;1.35;;
16478;SDS011;8350;52.316;10.530;2024-03-23T03:49:32;1.88;;;1.73;;
16478;SDS011;8350;52.316;10.530;2024-03-23T03:52:00;4.35;;;2.03;;
16478;SDS011;8350;52.316;10.530;2024-03-23T03:54:27;1.75;;;1.40;;
16478;SDS011;8350;52.316;10.530;2024-03-23T03:56:53;1.85;;;1.58;;
16478;SDS011;8350;52.316;10.530;2024-03-23T03:59:20;1.95;;;1.35;;
16478;SDS011;8350;52.316;10.530;2024-03-23T04:01:47;3.95;;;1.70;;
16478;SDS011;8350;52.316;10.530;2024-03-23T04:04:15;1.02;;;1.02;;
16478;SDS011;8350;52.316;10.530;2024-03-23T04:06:41;3.50;;;1.80;;
16478;SDS011;8350;52.316;10.530;2024-03-23T04:09:11;2.10;;;1.60;;
16478;SDS011;8350;52.316;10.530;2024-03-23T04:11:41;1.63;;;1.10;;
16478;SDS011;8350;52.316;10.530;2024-03-23T04:14:08;2.35;;;1.45;;
16478;SDS011;8350;52.316;10.530;2024-03-23T04:16:36;2.70;;;1.70;;
16478;SDS011;8350;52.316;10.530;2024-03-23T04:19:05;1.65;;;1.35;;
16478;SDS011;8350;52.316;10.530;2024-03-23T04:21:34;2.25;;;1.52;;
16478;SDS011;8350;52.316;10.530;2024-03-23T04:24:01;4.30;;;2.25;;
16478;SDS011;8350;52.316;10.530;2024-03-23T04:26:40;1.55;;;1.40;;
16478;SDS011;8350;52.316;10.530;2024-03-23T04:29:08;1.92;;;1.63;;
16478;SDS011;8350;52.316;10.530;2024-03-23T04:31:34;1.80;;;1.35;;
16478;SDS011;8350;52.316;10.530;2024-03-23T04:34:03;1.55;;;1.40;;
16478;SDS011;8350;52.316;10.530;2024-03-23T04:36:34;1.75;;;1.40;;
16478;SDS011;8350;52.316;10.530;2024-03-23T04:39:02;1.17;;;1.08;;
16478;SDS011;8350;52.316;10.530;2024-03-23T04:41:31;5.65;;;1.73;;
16478;SDS011;8350;52.316;10.530;2024-03-23T04:44:11;2.20;;;1.40;;
16478;SDS011;8350;52.316;10.530;2024-03-23T04:46:45;2.45;;;1.42;;
16478;SDS011;8350;52.316;10.530;2024-03-23T04:49:15;2.97;;;1.67;;
16478;SDS011;8350;52.316;10.530;2024-03-23T04:51:43;5.68;;;1.92;;
16478;SDS011;8350;52.316;10.530;2024-03-23T04:54:11;4.10;;;1.70;;
16478;SDS011;8350;52.316;10.530;2024-03-23T04:56:37;1.60;;;1.35;;
16478;SDS011;8350;52.316;10.530;2024-03-23T04:59:04;1.40;;;1.30;;
16478;SDS011;8350;52.316;10.530;2024-03-23T05:01:30;1.70;;;1.45;;
16478;SDS011;8350;52.316;10.530;2024-03-23T05:03:57;5.15;;;1.23;;
16478;SDS011;8350;52.316;10.530;2024-03-23T05:06:26;1.85;;;1.63;;
16478;SDS011;8350;52.316;10.530;2024-03-23T05:08:55;1.75;;;1.27;;
16478;SDS011;8350;52.316;10.530;2024-03-23T05:11:22;2.95;;;1.15;;
16478;SDS011;8350;52.316;10.530;2024-03-23T05:13:51;1.52;;;1.13;;
16478;SDS011;8350;52.316;10.530;2024-03-23T05:16:17;1.73;;;1.58;;
16478;SDS011;8350;52.316;10.530;2024-03-23T05:18:44;4.40;;;1.25;;
16478;SDS011;8350;52.316;10.530;2024-03-23T05:21:15;3.72;;;1.15;;
16478;SDS011;8350;52.316;10.530;2024-03-23T05:23:42;2.05;;;1.55;;
16478;SDS011;8350;52.316;10.530;2024-03-23T05:26:09;1.85;;;1.20;;
16478;SDS011;8350;52.316;10.530;2024-03-23T05:28:35;2.30;;;1.60;;
16478;SDS011;8350;52.316;10.530;2024-03-23T05:31:04;3.00;;;1.38;;
16478;SDS011;8350;52.316;10.530;2024-03-23T05:33:30;4.15;;;1.58;;
16478;SDS011;8350;52.316;10.530;2024-03-23T05:36:00;3.70;;;2.25;;
16478;SDS011;8350;52.316;10.530;2024-03-23T05:38:26;2.42;;;1.60;;
16478;SDS011;8350;52.316;10.530;2024-03-23T05:40:55;0.70;;;0.70;;
16478;SDS011;8350;52.316;10.530;2024-03-23T05:43:22;1.60;;;0.88;;
16478;SDS011;8350;52.316;10.530;2024-03-23T05:45:53;1.67;;;1.30;;
16478;SDS011;8350;52.316;10.530;2024-03-23T05:48:35;2.67;;;1.55;;
16478;SDS011;8350;52.316;10.530;2024-03-23T05:51:04;1.88;;;0.65;;
16478;SDS011;8350;52.316;10.530;2024-03-23T05:53:34;2.17;;;1.27;;
16478;SDS011;8350;52.316;10.530;2024-03-23T05:56:05;1.77;;;1.42;;
16478;SDS011;8350;52.316;10.530;2024-03-23T05:58:31;4.13;;;2.53;;
16478;SDS011;8350;52.316;10.530;2024-03-23T06:01:01;0.77;;;0.75;;
16478;SDS011;8350;52.316;10.530;2024-03-23T06:03:29;1.85;;;1.02;;
16478;SDS011;8350;52.316;10.530;2024-03-23T06:05:58;4.32;;;1.42;;
16478;SDS011;8350;52.316;10.530;2024-03-23T06:08:41;4.35;;;0.88;;
16478;SDS011;8350;52.316;10.530;2024-03-23T06:11:15;1.02;;;1.02;;
16478;SDS011;8350;52.316;10.530;2024-03-23T06:13:50;0.80;;;0.80;;
16478;SDS011;8350;52.316;10.530;2024-03-23T06:16:17;1.27;;;0.90;;
16478;SDS011;8350;52.316;10.530;2024-03-23T06:18:57;0.57;;;0.57;;
16478;SDS011;8350;52.316;10.530;2024-03-23T06:21:25;0.80;;;0.50;;
16478;SDS011;8350;52.316;10.530;2024-03-23T06:23:53;1.00;;;0.75;;
16478;SDS011;8350;52.316;10.530;2024-03-23T06:26:31;2.58;;;0.85;;
16478;SDS011;8350;52.316;10.530;2024-03-23T06:29:01;1.95;;;0.85;;
16478;SDS011;8350;52.316;10.530;2024-03-23T06:31:28;0.55;;;0.55;;
16478;SDS011;8350;52.316;10.530;2024-03-23T06:33:54;4.90;;;2.05;;
16478;SDS011;8350;52.316;10.530;2024-03-23T06:36:21;0.50;;;0.43;;
16478;SDS011;8350;52.316;10.530;2024-03-23T06:38:47;0.70;;;0.60;;
16478;SDS011;8350;52.316;10.530;2024-03-23T06:41:16;2.25;;;0.70;;
16478;SDS011;8350;52.316;10.530;2024-03-23T06:43:45;1.55;;;1.50;;
16478;SDS011;8350;52.316;10.530;2024-03-23T06:46:15;0.57;;;0.52;;
16478;SDS011;8350;52.316;10.530;2024-03-23T06:48:41;0.60;;;0.60;;
16478;SDS011;8350;52.316;10.530;2024-03-23T06:51:10;0.73;;;0.70;;
16478;SDS011;8350;52.316;10.530;2024-03-23T06:53:36;1.38;;;0.80;;
16478;SDS011;8350;52.316;10.530;2024-03-23T06:56:04;0.35;;;0.30;;
16478;SDS011;8350;52.316;10.530;2024-03-23T06:58:33;1.23;;;0.60;;
16478;SDS011;8350;52.316;10.530;2024-03-23T07:01:07;0.22;;;0.20;;
16478;SDS011;8350;52.316;10.530;2024-03-23T07:03:32;0.30;;;0.30;;
16478;SDS011;8350;52.316;10.530;2024-03-23T07:06:04;0.40;;;0.40;;
16478;SDS011;8350;52.316;10.530;2024-03-23T07:08:33;1.17;;;0.43;;
16478;SDS011;8350;52.316;10.530;2024-03-23T07:11:00;1.15;;;0.45;;
16478;SDS011;8350;52.316;10.530;2024-03-23T07:13:27;3.20;;;0.98;;
16478;SDS011;8350;52.316;10.530;2024-03-23T07:15:55;0.30;;;0.30;;
16478;SDS011;8350;52.316;10.530;2024-03-23T07:18:24;1.80;;;0.68;;
16478;SDS011;8350;52.316;10.530;2024-03-23T07:20:54;0.90;;;0.52;;
16478;SDS011;8350;52.316;10.530;2024-03-23T07:23:21;1.08;;;0.50;;
16478;SDS011;8350;52.316;10.530;2024-03-23T07:26:17;1.70;;;0.60;;
16478;SDS011;8350;52.316;10.530;2024-03-23T07:28:51;2.10;;;0.70;;
16478;SDS011;8350;52.316;10.530;2024-03-23T07:31:21;3.55;;;1.13;;
16478;SDS011;8350;52.316;10.530;2024-03-23T07:33:49;3.22;;;0.60;;
16478;SDS011;8350;52.316;10.530;2024-03-23T07:36:15;2.83;;;1.50;;
16478;SDS011;8350;52.316;10.530;2024-03-23T07:38:44;0.75;;;0.75;;
16478;SDS011;8350;52.316;10.530;2024-03-23T07:41:10;1.35;;;1.02;;
16478;SDS011;8350;52.316;10.530;2024-03-23T07:43:38;0.65;;;0.60;;
16478;SDS011;8350;52.316;10.530;2024-03-23T07:46:05;0.70;;;0.70;;
16478;SDS011;8350;52.316;10.530;2024-03-23T07:48:37;2.25;;;0.60;;
16478;SDS011;8350;52.316;10.530;2024-03-23T07:51:06;1.83;;;1.13;;
16478;SDS011;8350;52.316;10.530;2024-03-23T07:56:23;2.38;;;1.02;;
16478;SDS011;8350;52.316;10.530;2024-03-23T07:58:50;5.55;;;1.45;;
16478;SDS011;8350;52.316;10.530;2024-03-23T08:01:18;1.58;;;0.60;;
16478;SDS011;8350;52.316;10.530;2024-03-23T08:03:47;0.98;;;0.70;;
16478;SDS011;8350;52.316;10.530;2024-03-23T08:06:17;2.70;;;0.70;;
16478;SDS011;8350;52.316;10.530;2024-03-23T08:08:48;1.95;;;0.60;;
16478;SDS011;8350;52.316;10.530;2024-03-23T08:11:24;1.13;;;0.50;;
16478;SDS011;8350;52.316;10.530;2024-03-23T08:14:12;0.95;;;0.95;;
16478;SDS011;8350;52.316;10.530;2024-03-23T08:16:44;2.53;;;0.65;;
16478;SDS011;8350;52.316;10.530;2024-03-23T08:19:13;1.13;;;0.75;;
16478;SDS011;8350;52.316;10.530;2024-03-23T08:22:02;0.70;;;0.52;;
16478;SDS011;8350;52.316;10.530;2024-03-23T08:24:28;1.95;;;0.60;;
16478;SDS011;8350;52.316;10.530;2024-03-23T08:26:59;1.83;;;1.10;;
16478;SDS011;8350;52.316;10.530;2024-03-23T08:29:33;2.45;;;1.30;;
16478;SDS011;8350;52.316;10.530;2024-03-23T08:32:02;3.30;;;0.60;;
16478;SDS011;8350;52.316;10.530;2024-03-23T08:34:31;2.15;;;0.70;;
16478;SDS011;8350;52.316;10.530;2024-03-23T08:36:58;1.13;;;0.70;;
16478;SDS011;8350;52.316;10.530;2024-03-23T08:39:38;1.75;;;0.80;;
16478;SDS011;8350;52.316;10.530;2024-03-23T08:42:11;4.97;;;1.48;;
16478;SDS011;8350;52.316;10.530;2024-03-23T08:44:44;1.38;;;0.70;;
16478;SDS011;8350;52.316;10.530;2024-03-23T08:47:14;1.73;;;1.10;;
16478;SDS011;8350;52.316;10.530;2024-03-23T08:49:40;2.40;;;0.95;;
16478;SDS011;8350;52.316;10.530;2024-03-23T08:52:11;2.63;;;0.73;;
16478;SDS011;8350;52.316;10.530;2024-03-23T08:54:41;4.20;;;0.85;;
16478;SDS011;8350;52.316;10.530;2024-03-23T08:57:18;0.95;;;0.68;;
16478;SDS011;8350;52.316;10.530;2024-03-23T09:00:15;2.10;;;0.73;;
16478;SDS011;8350;52.316;10.530;2024-03-23T09:02:37;4.07;;;1.48;;
16478;SDS011;8350;52.316;10.530;2024-03-23T09:05:13;2.15;;;0.90;;
16478;SDS011;8350;52.316;10.530;2024-03-23T09:07:40;1.55;;;1.45;;
16478;SDS011;8350;52.316;10.530;2024-03-23T09:10:08;1.67;;;1.58;;
16478;SDS011;8350;52.316;10.530;2024-03-23T09:12:36;3.45;;;1.70;;
16478;SDS011;8350;52.316;10.530;2024-03-23T09:15:04;2.42;;;1.35;;
16478;SDS011;8350;52.316;10.530;2024-03-23T09:17:34;1.25;;;1.15;;
16478;SDS011;8350;52.316;10.530;2024-03-23T09:20:02;3.92;;;1.98;;
16478;SDS011;8350;52.316;10.530;2024-03-23T09:22:32;3.17;;;1.48;;
16478;SDS011;8350;52.316;10.530;2024-03-23T09:25:06;1.63;;;1.27;;
16478;SDS011;8350;52.316;10.530;2024-03-23T09:27:52;4.88;;;1.98;;
16478;SDS011;8350;52.316;10.530;2024-03-23T09:30:20;4.15;;;1.40;;
16478;SDS011;8350;52.316;10.530;2024-03-23T09:32:47;3.05;;;1.00;;
16478;SDS011;8350;52.316;10.530;2024-03-23T09:35:16;2.38;;;1.38;;
16478;SDS011;8350;52.316;10.530;2024-03-23T09:37:57;3.97;;;1.20;;
16478;SDS011;8350;52.316;10.530;2024-03-23T09:40:26;5.00;;;1.77;;
16478;SDS011;8350;52.316;10.530;2024-03-23T09:42:55;1.80;;;1.55;;
16478;SDS011;8350;52.316;10.530;2024-03-23T09:45:26;3.42;;;2.13;;
16478;SDS011;8350;52.316;10.530;2024-03-23T09:47:54;5.60;;;1.35;;
16478;SDS011;8350;52.316;10.530;2024-03-23T09:50:24;2.97;;;2.70;;
16478;SDS011;8350;52.316;10.530;2024-03-23T09:53:11;4.43;;;2.35;;
16478;SDS011;8350;52.316;10.530;2024-03-23T09:55:43;2.85;;;2.30;;
16478;SDS011;8350;52.316;10.530;2024-03-23T09:58:17;2.35;;;2.08;;
16478;SDS011;8350;52.316;10.530;2024-03-23T10:00:46;3.28;;;1.70;;
16478;SDS011;8350;52.316;10.530;2024-03-23T10:03:14;3.65;;;3.03;;
16478;SDS011;8350;52.316;10.530;2024-03-23T10:05:43;5.10;;;2.55;;
16478;SDS011;8350;52.316;10.530;2024-03-23T10:08:18;3.30;;;2.25;;
16478;SDS011;8350;52.316;10.530;2024-03-23T10:10:51;9.05;;;3.17;;
16478;SDS011;8350;52.316;10.530;2024-03-23T10:13:24;5.13;;;2.47;;
16478;SDS011;8350;52.316;10.530;2024-03-23T10:15:55;3.53;;;2.70;;
16478;SDS011;8350;52.316;10.530;2024-03-23T10:18:23;4.20;;;3.05;;
16478;SDS011;8350;52.316;10.530;2024-03-23T10:21:07;4.28;;;2.63;;
16478;SDS011;8350;52.316;10.530;2024-03-23T10:23:36;2.25;;;2.00;;
16478;SDS011;8350;52.316;10.530;2024-03-23T10:26:18;3.88;;;1.80;;
16478;SDS011;8350;52.316;10.530;2024-03-23T10:28:51;2.22;;;1.67;;
16478;SDS011;8350;52.316;10.530;2024-03-23T10:31:26;2.38;;;2.15;;
16478;SDS011;8350;52.316;10.530;2024-03-23T10:34:14;2.28;;;1.23;;
16478;SDS011;8350;52.316;10.530;2024-03-23T10:36:44;5.93;;;2.13;;
16478;SDS011;8350;52.316;10.530;2024-03-23T10:39:11;3.33;;;1.85;;
16478;SDS011;8350;52.316;10.530;2024-03-23T10:41:43;2.35;;;1.80;;
16478;SDS011;8350;52.316;10.530;2024-03-23T10:44:12;4.13;;;2.30;;
16478;SDS011;8350;52.316;10.530;2024-03-23T10:46:39;5.85;;;2.00;;
16478;SDS011;8350;52.316;10.530;2024-03-23T10:49:05;3.83;;;1.52;;
16478;SDS011;8350;52.316;10.530;2024-03-23T10:51:32;1.20;;;1.05;;
16478;SDS011;8350;52.316;10.530;2024-03-23T10:53:59;1.13;;;0.80;;
16478;SDS011;8350;52.316;10.530;2024-03-23T10:56:29;0.82;;;0.82;;
16478;SDS011;8350;52.316;10.530;2024-03-23T10:59:02;4.85;;;1.58;;
16478;SDS011;8350;52.316;10.530;2024-03-23T11:01:34;1.25;;;1.13;;
16478;SDS011;8350;52.316;10.530;2024-03-23T11:04:01;4.32;;;1.33;;
16478;SDS011;8350;52.316;10.530;2024-03-23T11:06:34;1.27;;;0.95;;
16478;SDS011;8350;52.316;10.530;2024-03-23T11:09:03;1.50;;;1.40;;
16478;SDS011;8350;52.316;10.530;2024-03-23T11:11:49;0.77;;;0.75;;
16478;SDS011;8350;52.316;10.530;2024-03-23T11:14:22;0.75;;;0.75;;
16478;SDS011;8350;52.316;10.530;2024-03-23T11:16:53;2.33;;;0.98;;
16478;SDS011;8350;52.316;10.530;2024-03-23T11:19:42;2.70;;;0.95;;
16478;SDS011;8350;52.316;10.530;2024-03-23T11:22:13;2.33;;;1.67;;
16478;SDS011;8350;52.316;10.530;2024-03-23T11:25:00;2.67;;;1.02;;
16478;SDS011;8350;52.316;10.530;2024-03-23T11:27:28;1.70;;;1.13;;
16478;SDS011;8350;52.316;10.530;2024-03-23T11:32:50;2.72;;;0.98;;
16478;SDS011;8350;52.316;10.530;2024-03-23T11:35:26;4.38;;;1.25;;
16478;SDS011;8350;52.316;10.530;2024-03-23T11:38:10;2.38;;;1.40;;
16478;SDS011;8350;52.316;10.530;2024-03-23T11:40:48;3.55;;;1.10;;
16478;SDS011;8350;52.316;10.530;2024-03-23T11:43:18;3.83;;;1.52;;
16478;SDS011;8350;52.316;10.530;2024-03-23T11:45:49;2.70;;;1.15;;
16478;SDS011;8350;52.316;10.530;2024-03-23T11:48:18;2.42;;;1.35;;
16478;SDS011;8350;52.316;10.530;2024-03-23T11:50:50;0.70;;;0.70;;
16478;SDS011;8350;52.316;10.530;2024-03-23T11:53:23;1.75;;;1.65;;
16478;SDS011;8350;52.316;10.530;2024-03-23T11:55:50;1.08;;;1.00;;
16478;SDS011;8350;52.316;10.530;2024-03-23T11:58:21;1.65;;;0.90;;
16478;SDS011;8350;52.316;10.530;2024-03-23T12:00:54;4.47;;;1.63;;
16478;SDS011;8350;52.316;10.530;2024-03-23T12:03:32;0.95;;;0.95;;
16478;SDS011;8350;52.316;10.530;2024-03-23T12:05:59;1.00;;;1.00;;
16478;SDS011;8350;52.316;10.530;2024-03-23T12:08:29;1.33;;;1.20;;
16478;SDS011;8350;52.316;10.530;2024-03-23T12:11:06;1.40;;;1.13;;
16478;SDS011;8350;52.316;10.530;2024-03-23T12:13:38;2.22;;;1.42;;
16478;SDS011;8350;52.316;10.530;2024-03-23T12:16:12;3.40;;;1.20;;
16478;SDS011;8350;52.316;10.530;2024-03-23T12:18:43;1.95;;;1.08;;
16478;SDS011;8350;52.316;10.530;2024-03-23T12:21:15;2.80;;;1.67;;
16478;SDS011;8350;52.316;10.530;2024-03-23T12:23:47;1.25;;;1.15;;
16478;SDS011;8350;52.316;10.530;2024-03-23T12:26:17;1.40;;;1.10;;
16478;SDS011;8350;52.316;10.530;2024-03-23T12:28:45;1.17;;;1.08;;
16478;SDS011;8350;52.316;10.530;2024-03-23T12:31:12;0.88;;;0.70;;
16478;SDS011;8350;52.316;10.530;2024-03-23T12:33:39;1.20;;;0.70;;
16478;SDS011;8350;52.316;10.530;2024-03-23T12:36:05;0.95;;;0.75;;
16478;SDS011;8350;52.316;10.530;2024-03-23T12:38:35;0.85;;;0.85;;
16478;SDS011;8350;52.316;10.530;2024-03-23T12:41:01;0.55;;;0.55;;
16478;SDS011;8350;52.316;10.530;2024-03-23T12:43:30;0.52;;;0.43;;
16478;SDS011;8350;52.316;10.530;2024-03-23T12:46:21;1.10;;;0.88;;
16478;SDS011;8350;52.316;10.530;2024-03-23T12:48:49;0.52;;;0.50;;
16478;SDS011;8350;52.316;10.530;2024-03-23T12:51:15;2.20;;;0.57;;
16478;SDS011;8350;52.316;10.530;2024-03-23T12:53:41;1.63;;;0.93;;
16478;SDS011;8350;52.316;10.530;2024-03-23T12:56:12;1.58;;;0.60;;
16478;SDS011;8350;52.316;10.530;2024-03-23T12:58:39;0.70;;;0.70;;
16478;SDS011;8350;52.316;10.530;2024-03-23T13:01:08;1.45;;;1.30;;
16478;SDS011;8350;52.316;10.530;2024-03-23T13:03:40;1.27;;;0.70;;
16478;SDS011;8350;52.316;10.530;2024-03-23T13:06:10;0.82;;;0.82;;
16478;SDS011;8350;52.316;10.530;2024-03-23T13:08:37;1.05;;;0.88;;
16478;SDS011;8350;52.316;10.530;2024-03-23T13:11:03;1.33;;;1.20;;
16478;SDS011;8350;52.316;10.530;2024-03-23T13:13:30;1.02;;;0.82;;
16478;SDS011;8350;52.316;10.530;2024-03-23T13:15:58;4.32;;;1.27;;
16478;SDS011;8350;52.316;10.530;2024-03-23T13:18:31;0.70;;;0.70;;
16478;SDS011;8350;52.316;10.530;2024-03-23T13:21:02;0.80;;;0.75;;
16478;SDS011;8350;52.316;10.530;2024-03-23T13:23:31;1.42;;;1.15;;
16478;SDS011;8350;52.316;10.530;2024-03-23T13:25:59;1.85;;;1.58;;
16478;SDS011;8350;52.316;10.530;2024-03-23T13:28:28;0.90;;;0.90;;
16478;SDS011;8350;52.316;10.530;2024-03-23T13:31:03;0.95;;;0.80;;
16478;SDS011;8350;52.316;10.530;2024-03-23T13:33:30;0.82;;;0.82;;
16478;SDS011;8350;52.316;10.530;2024-03-23T13:35:57;1.15;;;0.98;;
16478;SDS011;8350;52.316;10.530;2024-03-23T13:38:30;0.98;;;0.80;;
16478;SDS011;8350;52.316;10.530;2024-03-23T13:40:58;1.10;;;1.00;;
16478;SDS011;8350;52.316;10.530;2024-03-23T13:43:27;2.28;;;1.38;;
16478;SDS011;8350;52.316;10.530;2024-03-23T13:45:58;1.10;;;1.00;;
16478;SDS011;8350;52.316;10.530;2024-03-23T13:48:27;1.08;;;0.98;;
16478;SDS011;8350;52.316;10.530;2024-03-23T13:51:04;0.73;;;0.73;;
16478;SDS011;8350;52.316;10.530;2024-03-23T13:53:33;1.08;;;0.98;;
16478;SDS011;8350;52.316;10.530;2024-03-23T13:56:01;2.60;;;0.80;;
16478;SDS011;8350;52.316;10.530;2024-03-23T13:58:28;1.80;;;1.30;;
16478;SDS011;8350;52.316;10.530;2024-03-23T14:00:56;1.08;;;0.98;;
16478;SDS011;8350;52.316;10.530;2024-03-23T14:03:23;0.68;;;0.68;;
16478;SDS011;8350;52.316;10.530;2024-03-23T14:05:49;1.30;;;1.20;;
16478;SDS011;8350;52.316;10.530;2024-03-23T14:08:17;0.77;;;0.65;;
16478;SDS011;8350;52.316;10.530;2024-03-23T14:10:45;2.28;;;1.48;;
16478;SDS011;8350;52.316;10.530;2024-03-23T14:13:13;1.75;;;0.77;;
16478;SDS011;8350;52.316;10.530;2024-03-23T14:15:54;0.70;;;0.70;;
16478;SDS011;8350;52.316;10.530;2024-03-23T14:18:21;0.90;;;0.90;;
16478;SDS011;8350;52.316;10.530;2024-03-23T14:20:47;1.80;;;0.90;;
16478;SDS011;8350;52.316;10.530;2024-03-23T14:23:14;1.45;;;0.70;;
16478;SDS011;8350;52.316;10.530;2024-03-23T14:25:45;1.52;;;0.93;;
16478;SDS011;8350;52.316;10.530;2024-03-23T14:28:12;1.17;;;1.00;;
16478;SDS011;8350;52.316;10.530;2024-03-23T14:30:41;1.20;;;0.98;;
16478;SDS011;8350;52.316;10.530;2024-03-23T14:33:08;0.80;;;0.80;;
16478;SDS011;8350;52.316;10.530;2024-03-23T14:35:34;0.90;;;0.80;;
16478;SDS011;8350;52.316;10.530;2024-03-23T14:38:01;0.88;;;0.77;;
16478;SDS011;8350;52.316;10.530;2024-03-23T14:40:27;0.43;;;0.38;;
16478;SDS011;8350;52.316;10.530;2024-03-23T14:42:58;1.40;;;1.05;;
16478;SDS011;8350;52.316;10.530;2024-03-23T14:45:24;1.10;;;0.77;;
16478;SDS011;8350;52.316;10.530;2024-03-23T14:47:52;1.08;;;1.00;;
16478;SDS011;8350;52.316;10.530;2024-03-23T14:50:18;0.80;;;0.77;;
16478;SDS011;8350;52.316;10.530;2024-03-23T14:52:46;1.35;;;1.25;;
16478;SDS011;8350;52.316;10.530;2024-03-23T14:55:12;0.75;;;0.75;;
16478;SDS011;8350;52.316;10.530;2024-03-23T14:57:40;2.47;;;0.95;;
16478;SDS011;8350;52.316;10.530;2024-03-23T15:00:11;3.42;;;1.55;;
16478;SDS011;8350;52.316;10.530;2024-03-23T15:02:40;1.05;;;0.82;;
16478;SDS011;8350;52.316;10.530;2024-03-23T15:05:11;0.82;;;0.82;;
16478;SDS011;8350;52.316;10.530;2024-03-23T15:07:38;1.25;;;1.15;;
16478;SDS011;8350;52.316;10.530;2024-03-23T15:10:10;1.40;;;1.30;;
16478;SDS011;8350;52.316;10.530;2024-03-23T15:12:38;1.88;;;1.60;;
16478;SDS011;8350;52.316;10.530;2024-03-23T15:15:05;0.80;;;0.80;;
16478;SDS011;8350;52.316;10.530;2024-03-23T15:17:36;0.93;;;0.85;;
16478;SDS011;8350;52.316;10.530;2024-03-23T15:20:06;3.35;;;2.42;;
16478;SDS011;8350;52.316;10.530;2024-03-23T15:22:35;4.63;;;1.67;;
16478;SDS011;8350;52.316;10.530;2024-03-23T15:25:00;3.60;;;2.88;;
16478;SDS011;8350;52.316;10.530;2024-03-23T15:27:27;1.75;;;1.08;;
16478;SDS011;8350;52.316;10.530;2024-03-23T15:29:53;1.55;;;1.02;;
16478;SDS011;8350;52.316;10.530;2024-03-23T15:32:44;3.85;;;2.40;;
16478;SDS011;8350;52.316;10.530;2024-03-23T15:35:10;0.85;;;0.75;;
16478;SDS011;8350;52.316;10.530;2024-03-23T15:37:39;0.70;;;0.60;;
16478;SDS011;8350;52.316;10.530;2024-03-23T15:40:11;3.25;;;1.52;;
16478;SDS011;8350;52.316;10.530;2024-03-23T15:42:39;1.38;;;1.27;;
16478;SDS011;8350;52.316;10.530;2024-03-23T15:45:08;1.20;;;1.05;;
16478;SDS011;8350;52.316;10.530;2024-03-23T15:47:36;2.17;;;1.58;;
16478;SDS011;8350;52.316;10.530;2024-03-23T15:50:23;2.15;;;1.92;;
16478;SDS011;8350;52.316;10.530;2024-03-23T15:52:48;1.10;;;1.02;;
16478;SDS011;8350;52.316;10.530;2024-03-23T15:55:16;0.50;;;0.50;;
16478;SDS011;8350;52.316;10.530;2024-03-23T15:57:42;0.60;;;0.50;;
16478;SDS011;8350;52.316;10.530;2024-03-23T16:00:09;0.30;;;0.30;;
16478;SDS011;8350;52.316;10.530;2024-03-23T16:02:40;0.40;;;0.40;;
16478;SDS011;8350;52.316;10.530;2024-03-23T16:05:08;0.40;;;0.40;;
16478;SDS011;8350;52.316;10.530;2024-03-23T16:07:37;0.30;;;0.30;;
16478;SDS011;8350;52.316;10.530;2024-03-23T16:10:05;0.35;;;0.35;;